BBC Switzerland — DGFL2 — position and weather

sailwx.info

Track history (hours):
 
Tides and Currents Weather Stations Pressure Air Temp Water Temp Dewpoint Dewpoint Depression Visibility Wind Speed Wind Dir Waves Ship Positions

BBC Switzerland

Last reported at 2014-Jul-26 11:19 UTC. Time now 2014-Jul-26 15:11 UTC.
Position N 40°01' W 068°44'.

Length 119 m; draft 6.3 m.

Type: Cargo ship. MMSI: 218629000.

Date/timePositionNaut miles runAvg speedWind from/ knotsBaromVisibWave heightAir tempDewpointWater temp
2014-Jul-26 11:19N 40°01' W 068°44'1013.4
2014-Jul-26 10:33N 40°06' W 068°33'1513.3
2014-Jul-26 09:27N 40°13' W 068°16'1413.9
2014-Jul-26 08:27N 40°20' W 067°60'1213.9
2014-Jul-26 07:33N 40°26' W 067°45'1414.2
2014-Jul-26 06:33N 40°33' W 067°29'1514.6
2014-Jul-26 05:33N 40°40' W 067°12'1514.8
2014-Jul-26 04:31N 40°47' W 066°54'1714.1
2014-Jul-26 03:17N 40°56' W 066°34'  
2014-Jul-22 20:25N 46°32' W 072°10'1214.4
2014-Jul-22 19:33N 46°24' W 072°24'1312.7
2014-Jul-22 18:34N 46°16' W 072°38'1614.9
2014-Jul-22 17:28N 46°07' W 072°58'2412.5
2014-Jul-22 15:33N 45°48' W 073°19'1313.1
2014-Jul-22 14:33N 45°38' W 073°30'8 7.8
2014-Jul-22 13:33N 45°30' W 073°31'1 1.5
2014-Jul-22 12:33N 45°28' W 073°30'5 4.6
2014-Jul-22 11:33N 45°24' W 073°34'4 3.8
2014-Jul-22 10:33N 45°25' W 073°39'1110.7
2014-Jul-22 09:33N 45°20' W 073°53'3 2.6
2014-Jul-22 08:33N 45°18' W 073°56'4 3.5
2014-Jul-22 07:30N 45°15' W 073°58'1011.0
2014-Jul-22 06:33N 45°14' W 074°13'112 9.2
2014-Jul-21 18:22N 44°08' W 076°21'4 4.2
2014-Jul-21 17:31N 44°05' W 076°24'0 0.3
2014-Jul-21 16:34N 44°05' W 076°24'0 0.0
2014-Jul-21 15:28N 44°05' W 076°24'0 0.0
2014-Jul-21 14:34N 44°05' W 076°24'0 0.0
2014-Jul-21 13:34N 44°05' W 076°24'  
2014-Jul-17 19:27N 42°29' W 080°07'  
Track history (hours):
 
Tides and Currents Weather Stations Pressure Air Temp Water Temp Dewpoint Dewpoint Depression Visibility Wind Speed Wind Dir Waves Ship Positions

BBC Switzerland

Last reported at 2014-Jul-26 11:19 UTC. Time now 2014-Jul-26 15:11 UTC.
Position N 40°01' W 068°44'.

Length 119 m; draft 6.3 m.

Type: Cargo ship. MMSI: 218629000.

Date/timePositionNaut miles runAvg speedWind from/ knotsBaromVisibWave heightAir tempDewpointWater temp
2014-Jul-26 11:19N 40°01' W 068°44'1013.4
2014-Jul-26 10:33N 40°06' W 068°33'1513.3
2014-Jul-26 09:27N 40°13' W 068°16'1413.9
2014-Jul-26 08:27N 40°20' W 067°60'1213.9
2014-Jul-26 07:33N 40°26' W 067°45'1414.2
2014-Jul-26 06:33N 40°33' W 067°29'1514.6
2014-Jul-26 05:33N 40°40' W 067°12'1514.8
2014-Jul-26 04:31N 40°47' W 066°54'1714.1
2014-Jul-26 03:17N 40°56' W 066°34'  
2014-Jul-22 20:25N 46°32' W 072°10'1214.4
2014-Jul-22 19:33N 46°24' W 072°24'1312.7
2014-Jul-22 18:34N 46°16' W 072°38'1614.9
2014-Jul-22 17:28N 46°07' W 072°58'2412.5
2014-Jul-22 15:33N 45°48' W 073°19'1313.1
2014-Jul-22 14:33N 45°38' W 073°30'8 7.8
2014-Jul-22 13:33N 45°30' W 073°31'1 1.5
2014-Jul-22 12:33N 45°28' W 073°30'5 4.6
2014-Jul-22 11:33N 45°24' W 073°34'4 3.8
2014-Jul-22 10:33N 45°25' W 073°39'1110.7
2014-Jul-22 09:33N 45°20' W 073°53'3 2.6
2014-Jul-22 08:33N 45°18' W 073°56'4 3.5
2014-Jul-22 07:30N 45°15' W 073°58'1011.0
2014-Jul-22 06:33N 45°14' W 074°13'112 9.2
2014-Jul-21 18:22N 44°08' W 076°21'4 4.2
2014-Jul-21 17:31N 44°05' W 076°24'0 0.3
2014-Jul-21 16:34N 44°05' W 076°24'0 0.0
2014-Jul-21 15:28N 44°05' W 076°24'0 0.0
2014-Jul-21 14:34N 44°05' W 076°24'0 0.0
2014-Jul-21 13:34N 44°05' W 076°24'  
2014-Jul-17 19:27N 42°29' W 080°07'  

Dump ship's entire track history